Latest Weather Observations for Forbes

IDN60801

Issued at 5:35 pm EDT Wednesday 22 October 2014 (issued every 30 minutes, with the page automatically refreshed every 10 minutes)

About weather observations | Map of weather stations | Latest weather observations for NSW | Other Formats
Station Details ID: 065103 Name: FORBES AIRPORT AWS Lat: -33.36 Lon: 147.92 Height: 230.4 m
Data from the previous 72 hours. | See also: Recent months at Forbes
Date/Time
EDT
Temp
°C
App
Temp
°C
Dew
Point
Rel
Hum
%
Delta-T
°C
Wind Press
QNH
hPa
Press
MSL
hPa
Rain
since 9 am
mm
Dir
 
Spd
km/h
Gust
km/h
Spd
kts
Gust
kts
22/05:30pm 30.3 28.6 9.8 28 11.7 N 9 17 5 9 1017.1 1016.7 0.0
22/05:00pm 29.7 26.6 8.7 27 11.7 NNW 15 22 8 12 1017.4 1017.0 0.0
22/04:30pm 30.7 27.9 10.1 28 11.8 N 15 22 8 12 1017.6 1017.3 0.0
22/04:00pm 29.8 26.6 9.9 29 11.3 N 17 26 9 14 1018.1 1017.7 0.0
22/03:30pm 29.7 26.6 10.3 30 11.1 NW 17 20 9 11 1018.6 1018.2 0.0
22/03:00pm 29.9 26.3 10.5 30 11.1 NNW 20 28 11 15 1019.0 1018.6 0.0
22/02:30pm 29.9 26.6 10.9 31 11.0 N 19 30 10 16 1019.4 1019.0 0.0
22/02:00pm 28.2 24.4 9.9 32 10.3 N 20 33 11 18 1020.1 1019.7 0.0
22/01:30pm 28.6 24.8 11.2 34 10.1 N 22 35 12 19 1020.7 1020.3 0.0
22/01:00pm 26.7 22.2 10.0 35 9.4 N 24 37 13 20 1021.2 1020.8 0.0
22/12:30pm 26.4 21.8 10.9 38 8.8 N 26 35 14 19 1021.8 1021.5 0.0
22/12:00pm 26.4 22.9 10.9 38 8.8 N 20 32 11 17 1022.3 1022.0 0.0
22/11:30am 23.9 19.2 9.1 39 8.1 N 24 32 13 17 1023.1 1022.7 0.0
22/11:00am 23.1 18.4 9.1 41 7.6 N 24 33 13 18 1023.7 1023.3 0.0
22/10:30am 22.0 18.0 9.2 44 6.9 NNE 20 32 11 17 1024.3 1023.9 0.0
22/10:00am 20.8 17.3 8.8 46 6.4 ENE 17 24 9 13 1024.5 1024.1 0.0
22/09:30am 19.1 15.8 9.6 54 5.1 NNE 17 19 9 10 1024.7 1024.3 0.0
22/09:00am 17.3 14.3 9.2 59 4.2 NNE 15 20 8 11 1024.8 1024.4 0.0
22/08:30am 16.0 13.4 9.2 64 3.5 N 13 22 7 12 1024.8 1024.4 0.0
22/08:00am 14.1 12.4 9.7 75 2.3 N 9 13 5 7 1024.5 1024.1 0.0
22/07:30am 13.2 11.9 10.0 81 1.7 E 7 9 4 5 1024.0 1023.6 0.0
22/07:00am 11.1 9.2 9.2 88 1.0 E 9 11 5 6 1024.1 1023.7 0.0
22/06:30am 10.3 8.0 9.1 92 0.6 E 11 13 6 7 1023.7 1023.3 0.0
22/06:00am 10.1 8.0 8.4 89 0.8 ENE 9 13 5 7 1023.8 1023.4 0.0
22/05:30am 10.0 7.6 8.8 92 0.6 ENE 11 13 6 7 1023.4 1023.0 0.0
22/05:00am 9.5 9.1 8.1 91 0.7 CALM 0 0 0 0 1023.5 1023.1 0.0
22/04:30am 9.6 9.1 7.7 88 0.9 CALM 0 0 0 0 1023.5 1023.1 0.0
22/04:00am 10.7 10.5 9.0 89 0.8 CALM 0 0 0 0 1023.4 1023.0 0.0
22/03:30am 10.6 9.8 8.2 85 1.2 E 2 6 1 3 1023.6 1023.2 0.0
22/03:00am 12.0 10.1 9.2 83 1.4 E 9 11 5 6 1023.6 1023.2 0.0
22/02:30am 12.1 10.3 9.3 83 1.4 E 9 11 5 6 1023.8 1023.4 0.0
22/02:00am 12.2 10.3 9.2 82 1.5 NE 9 9 5 5 1024.1 1023.7 0.0
22/01:30am 13.2 11.8 9.5 78 1.9 E 7 9 4 5 1024.5 1024.1 0.0
22/01:00am 14.1 12.8 9.9 76 2.2 E 7 9 4 5 1024.7 1024.3 0.0
22/12:30am 14.6 12.0 9.4 71 2.7 NE 13 15 7 8 1025.0 1024.6 0.0
22/12:00am 16.5 13.3 9.9 65 3.5 ENE 17 22 9 12 1025.1 1024.8 0.0
 
Date/Time
EDT
Temp
°C
App
Temp
°C
Dew
Point
Rel
Hum
%
Delta-T
°C
Wind Press
QNH
hPa
Press
MSL
hPa
Rain
since 9 am
mm
Dir
 
Spd
km/h
Gust
km/h
Spd
kts
Gust
kts
21/11:30pm 16.1 13.7 10.0 67 3.2 ENE 13 15 7 8 1025.1 1024.8 0.0
21/11:00pm 17.5 15.1 10.1 62 3.9 ENE 13 17 7 9 1024.9 1024.5 0.0
21/10:30pm 18.8 15.4 10.6 59 4.5 ENE 19 26 10 14 1024.8 1024.4 0.0
21/10:00pm 19.3 16.4 11.1 59 4.5 ENE 17 20 9 11 1024.7 1024.3 0.0
21/09:30pm 19.2 16.8 11.3 60 4.4 ENE 15 24 8 13 1024.4 1024.0 0.0
21/09:00pm 18.9 16.4 11.2 61 4.2 ENE 15 17 8 9 1024.2 1023.8 0.0
21/08:30pm 19.6 17.1 11.1 58 4.7 ENE 15 17 8 9 1024.1 1023.7 0.0
21/08:00pm 20.6 18.7 10.4 52 5.6 E 11 17 6 9 1023.9 1023.5 0.0
21/07:30pm 21.7 19.3 10.2 48 6.3 NE 13 15 7 8 1023.5 1023.1 0.0
21/07:00pm 23.8 21.3 9.8 41 7.7 NE 13 17 7 9 1023.3 1022.9 0.0
21/06:30pm 26.4 23.5 9.7 35 9.3 NE 15 24 8 13 1023.1 1022.7 0.0
21/06:00pm 27.1 23.8 9.5 33 9.8 NE 17 24 9 13 1023.0 1022.6 0.0
21/05:30pm 27.6 23.9 9.4 32 10.2 ENE 19 24 10 13 1023.0 1022.6 0.0
21/05:00pm 28.0 24.6 9.3 31 10.4 N 17 30 9 16 1023.0 1022.6 0.0
21/04:30pm 28.0 24.4 9.8 32 10.3 NE 19 26 10 14 1023.1 1022.7 0.0
21/04:00pm 28.1 25.5 9.4 31 10.4 NE 13 28 7 15 1023.2 1022.8 0.0
21/03:30pm 27.9 24.3 9.7 32 10.2 N 19 28 10 15 1023.7 1023.3 0.0
21/03:00pm 27.2 25.5 10.0 34 9.6 NE 9 19 5 10 1024.0 1023.6 0.0
21/02:30pm 27.6 23.8 9.9 33 10.0 N 20 33 11 18 1024.5 1024.1 0.0
21/02:00pm 26.7 22.8 9.5 34 9.5 N 20 28 11 15 1025.0 1024.6 0.0
21/01:30pm 26.0 22.3 9.4 35 9.2 NNE 19 26 10 14 1025.6 1025.3 0.0
21/01:00pm 25.7 21.4 9.5 36 8.9 N 22 30 12 16 1026.1 1025.8 0.0
21/12:30pm 25.1 21.6 10.2 39 8.3 NNE 19 33 10 18 1026.4 1026.1 0.0
21/12:00pm 25.3 21.9 10.7 40 8.2 NNE 19 22 10 12 1026.8 1026.5 0.0
21/11:30am 24.1 20.0 10.0 41 7.8 NNE 22 30 12 16 1027.3 1026.9 0.0
21/11:00am 23.4 19.7 10.1 43 7.3 NE 20 30 11 16 1027.6 1027.2 0.0
21/10:30am 22.2 17.9 9.4 44 7.0 ENE 22 30 12 16 1027.8 1027.4 0.0
21/10:00am 20.8 16.8 9.1 47 6.2 ENE 20 28 11 15 1028.0 1027.6 0.0
21/09:30am 20.1 15.8 9.4 50 5.7 NE 22 30 12 16 1028.0 1027.6 0.0
21/09:00am 19.1 15.4 10.1 56 4.8 ENE 20 30 11 16 1028.0 1027.6 0.0
21/08:30am 17.0 13.7 9.7 62 3.9 ENE 17 24 9 13 1028.0 1027.6 0.0
21/08:00am 15.6 13.4 9.5 67 3.2 E 11 15 6 8 1027.9 1027.5 0.0
21/07:30am 13.5 11.6 9.2 75 2.2 E 9 13 5 7 1027.6 1027.2 0.0
21/07:00am 12.1 10.2 8.9 81 1.6 ESE 9 11 5 6 1027.2 1026.8 0.0
21/06:30am 11.2 8.4 8.6 84 1.3 ESE 13 15 7 8 1026.5 1026.2 0.0
21/06:00am 11.1 8.6 8.3 83 1.4 ESE 11 15 6 8 1026.2 1025.9 0.0
21/05:30am 11.4 8.6 8.4 82 1.5 ESE 13 15 7 8 1026.0 1025.7 0.0
21/05:00am 11.8 9.0 8.6 81 1.6 ESE 13 17 7 9 1026.0 1025.7 0.0
21/04:30am 11.9 9.5 8.6 80 1.7 ESE 11 15 6 8 1026.0 1025.7 0.0
21/04:00am 12.4 9.7 8.9 79 1.8 ESE 13 17 7 9 1025.7 1025.4 0.0
21/03:30am 12.8 10.1 8.9 77 2.0 ESE 13 19 7 10 1025.8 1025.5 0.0
21/03:00am 13.0 10.3 9.1 77 2.0 ESE 13 19 7 10 1025.8 1025.5 0.0
21/02:30am 13.5 10.9 9.2 75 2.2 ESE 13 17 7 9 1025.7 1025.4 0.0
21/02:00am 13.9 10.9 9.3 74 2.4 ESE 15 20 8 11 1025.7 1025.4 0.0
21/01:30am 14.3 11.0 9.5 73 2.5 ESE 17 20 9 11 1025.8 1025.5 0.0
21/01:00am 14.9 11.7 9.9 72 2.6 ESE 17 28 9 15 1025.8 1025.5 0.0
21/12:30am 15.3 12.1 10.1 71 2.8 ESE 17 22 9 12 1025.8 1025.5 0.0
21/12:00am 15.7 12.6 10.2 70 2.9 ESE 17 24 9 13 1025.7 1025.4 0.0
 
Date/Time
EDT
Temp
°C
App
Temp
°C
Dew
Point
Rel
Hum
%
Delta-T
°C
Wind Press
QNH
hPa
Press
MSL
hPa
Rain
since 9 am
mm
Dir
 
Spd
km/h
Gust
km/h
Spd
kts
Gust
kts
20/11:30pm 16.3 13.2 10.4 68 3.2 E 17 24 9 13 1025.8 1025.5 0.0
20/11:00pm 16.7 13.7 10.5 67 3.3 ESE 17 24 9 13 1025.6 1025.3 0.0
20/10:30pm 17.3 15.0 10.4 64 3.7 ESE 13 17 7 9 1025.2 1024.9 0.0
20/10:00pm 18.3 14.9 10.7 61 4.1 ESE 19 26 10 14 1024.8 1024.4 0.0
20/09:30pm 19.9 16.6 11.7 59 4.6 ESE 20 32 11 17 1024.2 1023.8 0.0
20/09:00pm 20.7 17.7 12.4 59 4.7 ESE 20 32 11 17 1023.8 1023.4 0.0
20/08:30pm 21.6 17.1 12.5 56 5.2 ESE 28 37 15 20 1023.0 1022.6 0.0
20/08:16pm 22.1 17.6 12.6 55 5.5 ESE 28 48 15 26 1022.6 1022.2 0.0
20/08:00pm 22.6 18.5 12.8 54 5.6 ESE 26 39 14 21 1022.3 1022.0 0.0
20/07:30pm 24.0 19.6 12.9 50 6.5 SE 28 41 15 22 1021.8 1021.5 0.0
20/07:00pm 25.7 20.9 12.9 45 7.5 SE 30 41 16 22 1021.3 1021.0 0.0
20/06:45pm 27.6 22.8 12.8 40 8.7 ESE 30 48 16 26 1020.9 1020.5 0.0
20/06:32pm 30.4 24.0 8.7 26 12.2 S 32 43 17 23 1020.3 1019.9 0.0
20/06:30pm 32.0 28.5 1.2 14 15.4 SSW 9 17 5 9 1020.2 1019.8 0.0
20/06:00pm 32.8 29.8 1.8 14 15.7 N 7 13 4 7 1020.0 1019.6 0.0
20/05:30pm 33.6 29.4 1.4 13 16.3 SW 13 17 7 9 1020.2 1019.8 0.0
20/05:00pm 33.4 29.3 0.1 12 16.4 NW 11 17 6 9 1020.2 1019.8 0.0
20/04:30pm 33.5 29.5 0.2 12 16.5 S 11 17 6 9 1020.3 1019.9 0.0
20/04:00pm 33.4 29.5 1.3 13 16.1 E 11 17 6 9 1020.5 1020.1 0.0
20/03:30pm 33.6 30.3 2.4 14 16.0 NE 9 17 5 9 1020.9 1020.5 0.0
20/03:00pm 33.1 29.3 2.0 14 15.8 SW 11 24 6 13 1021.3 1021.0 0.0
20/02:30pm 32.0 28.5 1.2 14 15.4 E 9 20 5 11 1021.9 1021.6 0.0
20/02:00pm 32.5 29.0 3.5 16 15.0 W 11 19 6 10 1022.5 1022.1 0.0
20/01:30pm 31.7 28.3 1.9 15 15.0 SW 9 24 5 13 1023.0 1022.6 0.0
20/01:00pm 31.4 28.3 3.4 17 14.4 SW 9 15 5 8 1023.2 1022.8 0.0
20/12:30pm 30.9 26.5 4.6 19 13.8 SW 17 22 9 12 1023.6 1023.2 0.0
20/12:00pm 31.1 27.1 4.8 19 13.8 SW 15 24 8 13 1024.0 1023.6 0.0
20/11:30am 30.6 27.6 7.7 24 12.6 SW 13 20 7 11 1024.3 1023.9 0.0
20/11:00am 29.4 26.0 6.1 23 12.4 W 13 19 7 10 1024.6 1024.2 0.0
20/10:30am 28.1 25.3 6.8 26 11.4 NW 11 20 6 11 1024.8 1024.4 0.0
20/10:00am 26.1 23.7 7.2 30 10.0 NW 9 17 5 9 1024.9 1024.5 0.0
20/09:30am 24.6 22.3 7.3 33 9.2 N 9 13 5 7 1024.8 1024.4 0.0
20/09:00am 21.8 20.5 9.3 45 6.7 N 6 9 3 5 1024.6 1024.2 0.0
20/08:30am 19.5 18.1 9.7 53 5.3 NE 7 9 4 5 1024.5 1024.1 0.0
20/08:00am 16.6 15.7 10.5 67 3.3 ENE 6 7 3 4 1024.3 1023.9 0.0
20/07:30am 14.0 12.5 10.4 79 1.9 ENE 9 11 5 6 1024.0 1023.6 0.0
20/07:00am 10.4 8.9 9.2 92 0.6 ENE 7 9 4 5 1023.6 1023.2 0.0
20/06:30am 9.7 7.9 8.0 89 0.8 SE 7 9 4 5 1023.3 1022.9 0.0
20/06:00am 10.1 8.4 8.2 88 0.9 ESE 7 7 4 4 1022.8 1022.4 0.0
20/05:30am 10.8 9.2 8.6 86 1.1 ENE 7 9 4 5 1022.3 1022.0 0.0
20/05:00am 11.0 9.0 8.8 86 1.1 ENE 9 11 5 6 1022.0 1021.7 0.0
20/04:30am 11.0 9.4 8.8 86 1.1 NE 7 9 4 5 1022.0 1021.7 0.0
20/04:00am 11.7 10.1 8.9 83 1.4 ENE 7 9 4 5 1022.1 1021.8 0.0
20/03:30am 11.9 10.0 8.9 82 1.5 E 9 9 5 5 1022.5 1022.1 0.0
20/03:00am 12.0 10.4 8.8 81 1.6 ESE 7 7 4 4 1022.7 1022.3 0.0
20/02:30am 12.9 10.7 9.5 80 1.8 NE 11 11 6 6 1022.7 1022.3 0.0
20/02:00am 12.5 12.6 10.2 86 1.2 CALM 0 0 0 0 1023.1 1022.7 0.0
20/01:30am 11.5 11.2 8.5 82 1.5 CALM 0 0 0 0 1023.3 1022.9 0.0
20/01:00am 13.0 13.1 10.2 83 1.5 CALM 0 0 0 0 1023.4 1023.0 0.0
20/12:30am 13.6 13.6 9.8 78 2.0 CALM 0 0 0 0 1023.6 1023.2 0.0
20/12:00am 14.1 13.3 9.7 75 2.3 NNE 4 7 2 4 1023.5 1023.1 0.0
 
Date/Time
EDT
Temp
°C
App
Temp
°C
Dew
Point
Rel
Hum
%
Delta-T
°C
Wind Press
QNH
hPa
Press
MSL
hPa
Rain
since 9 am
mm
Dir
 
Spd
km/h
Gust
km/h
Spd
kts
Gust
kts
19/11:30pm 14.7 14.7 9.9 73 2.5 CALM 0 0 0 0 1023.7 1023.3 0.0
19/11:00pm 15.2 15.1 9.6 69 2.9 CALM 0 0 0 0 1023.6 1023.2 0.0
19/10:30pm 15.3 14.1 9.7 69 2.9 E 6 7 3 4 1023.5 1023.1 0.0
19/10:00pm 17.2 15.7 9.1 59 4.2 ENE 7 9 4 5 1023.5 1023.1 0.0
19/09:30pm 17.1 15.6 11.8 71 2.9 NE 11 13 6 7 1023.3 1022.9 0.0
19/09:00pm 18.0 16.9 10.6 62 4.0 NE 7 7 4 4 1023.4 1023.0 0.0
19/08:30pm 18.0 17.9 9.4 57 4.6 CALM 0 0 0 0 1023.2 1022.8 0.0
19/08:00pm 20.9 18.5 5.3 36 7.8 E 7 11 4 6 1022.7 1022.3 0.0
19/07:30pm 22.4 22.6 10.5 47 6.6 CALM 0 0 0 0 1022.3 1022.0 0.0
19/07:00pm 25.9 24.7 4.4 25 10.9 CALM 0 0 0 0 1022.2 1021.9 0.0
19/06:30pm 28.5 27.1 3.4 20 12.7 CALM 0 0 0 0 1022.0 1021.7 0.0
19/06:00pm 28.7 25.8 2.8 19 13.0 N 7 9 4 5 1021.6 1021.3 0.0

Other Formats:

Comma delimited format used in spreadsheet applications
http://www.bom.gov.au/fwo/IDN60801/IDN60801.94715.axf

JavaScript Object Notation format (JSON) in row-major order
http://www.bom.gov.au/fwo/IDN60801/IDN60801.94715.json